Time;durP1;ratioP1;P1;durP2;ratioP2;P2;SDS_P1;SDS_P2;PMS_P1;PMS_P2;Temp;Humidity;BMP_temperature;BMP_pressure;BME280_temperature;BME280_humidity;BME280_pressure;Samples;Min_cycle;Max_cycle;Signal;HPM_P1;HPM_P2
2023/01/08 00:01:11;;;;;;;38.10;24.60;;;;;;;4.02;91.83;100781.30;214074;1266;65197;-75
2023/01/08 00:06:07;;;;;;;33.80;22.70;;;;;;;3.99;91.78;100776.56;214126;1266;60046;-75
2023/01/08 00:11:00;;;;;;;31.40;23.20;;;;;;;3.97;91.83;100777.31;213924;1266;73173;-75
2023/01/08 00:15:53;;;;;;;31.70;20.60;;;;;;;3.97;91.93;100773.89;214154;1267;72839;-75
2023/01/08 00:20:46;;;;;;;34.60;22.90;;;;;;;3.91;91.94;100775.85;214047;1266;59674;-74
2023/01/08 00:25:39;;;;;;;37.90;24.60;;;;;;;3.89;91.95;100775.22;214196;1266;65911;-75
2023/01/08 00:30:32;;;;;;;33.80;21.70;;;;;;;3.88;91.89;100774.18;214071;1271;60094;-75
2023/01/08 00:35:25;;;;;;;28.70;18.60;;;;;;;3.87;91.84;100770.34;214070;1266;70877;-74
2023/01/08 00:40:18;;;;;;;34.10;22.60;;;;;;;3.83;91.79;100773.45;214042;1266;59752;-75
2023/01/08 00:45:11;;;;;;;31.30;21.60;;;;;;;3.84;91.96;100772.94;214252;1269;59654;-75
2023/01/08 00:50:05;;;;;;;32.80;21.30;;;;;;;3.82;91.72;100766.53;214480;1269;66798;-75
2023/01/08 00:54:58;;;;;;;26.10;17.70;;;;;;;3.81;91.79;100760.49;214377;1266;59725;-75
2023/01/08 00:59:51;;;;;;;32.50;21.30;;;;;;;3.79;91.74;100763.52;214455;1266;74176;-75
2023/01/08 01:04:44;;;;;;;30.20;21.20;;;;;;;3.80;91.82;100757.91;214242;1270;73515;-76
2023/01/08 01:09:37;;;;;;;29.30;20.40;;;;;;;3.80;91.75;100755.50;214056;1266;59844;-76
2023/01/08 01:14:30;;;;;;;26.50;19.60;;;;;;;3.80;91.85;100747.58;214085;1266;65568;-76
2023/01/08 01:19:24;;;;;;;32.90;19.30;;;;;;;3.77;91.76;100745.77;214607;1263;59748;-76
2023/01/08 01:24:16;;;;;;;31.70;20.70;;;;;;;3.75;91.69;100741.88;214575;1263;74539;-76
2023/01/08 01:29:09;;;;;;;27.70;18.60;;;;;;;3.72;91.67;100729.92;214412;1263;72919;-76
2023/01/08 01:34:02;;;;;;;25.70;19.10;;;;;;;3.71;91.75;100728.33;214616;1263;59768;-76
2023/01/08 01:38:57;;;;;;;27.60;18.60;;;;;;;3.70;91.63;100731.52;214599;1263;59644;-76
2023/01/08 01:43:51;;;;;;;30.00;20.80;;;;;;;3.67;91.53;100725.23;214575;1262;59765;-75
2023/01/08 01:48:45;;;;;;;26.70;19.30;;;;;;;3.65;91.72;100730.64;214616;1263;72698;-75
2023/01/08 01:53:40;;;;;;;24.50;18.10;;;;;;;3.61;91.63;100728.41;214561;1266;71354;-75
2023/01/08 01:58:33;;;;;;;32.00;19.40;;;;;;;3.50;91.14;100725.17;214832;1261;59643;-76
2023/01/08 02:03:32;;;;;;;25.60;16.30;;;;;;;3.35;91.28;100714.71;214703;1263;59645;-75
2023/01/08 02:09:02;;;;;;;28.00;18.10;;;;;;;3.19;91.19;100707.13;214535;1263;59790;-75
2023/01/08 02:14:18;;;;;;;28.90;17.30;;;;;;;3.01;91.26;100695.84;214498;1262;70576;-75
2023/01/08 02:19:40;;;;;;;26.00;17.70;;;;;;;2.89;91.53;100692.48;214499;1263;72858;-76
2023/01/08 02:25:02;;;;;;;25.70;17.30;;;;;;;2.77;90.88;100685.92;214570;1263;61155;-76
2023/01/08 02:29:57;;;;;;;27.40;16.80;;;;;;;2.63;91.10;100687.37;214646;1263;67411;-75
2023/01/08 02:34:50;;;;;;;24.70;17.00;;;;;;;2.52;91.00;100684.09;214532;1263;59645;-76
2023/01/08 02:39:58;;;;;;;26.50;18.50;;;;;;;2.42;91.13;100685.98;214660;1262;72696;-76
2023/01/08 02:45:07;;;;;;;24.40;15.20;;;;;;;2.33;90.98;100684.69;214979;1265;73519;-76
2023/01/08 02:50:39;;;;;;;25.30;15.40;;;;;;;2.25;91.04;100681.23;214665;1262;60624;-75
2023/01/08 02:55:35;;;;;;;20.00;14.20;;;;;;;2.19;91.06;100681.11;214097;1270;67890;-76
2023/01/08 03:00:29;;;;;;;23.00;13.40;;;;;;;2.15;90.87;100677.27;214111;1272;62739;-76
2023/01/08 03:05:27;;;;;;;25.00;14.70;;;;;;;2.09;91.14;100676.84;213996;1271;73752;-76
2023/01/08 03:10:25;;;;;;;21.30;13.40;;;;;;;2.02;91.23;100667.73;213907;1270;71380;-75
2023/01/08 03:15:34;;;;;;;20.30;13.60;;;;;;;1.97;90.92;100657.90;214410;1273;59588;-76
2023/01/08 03:20:27;;;;;;;17.00;11.60;;;;;;;1.93;91.34;100655.66;213910;1270;67813;-75
2023/01/08 03:25:24;;;;;;;18.40;12.50;;;;;;;1.89;91.10;100655.13;214029;1272;59686;-76
2023/01/08 03:30:19;;;;;;;19.70;13.00;;;;;;;1.82;90.94;100658.21;214173;1262;71897;-76
2023/01/08 03:35:16;;;;;;;17.60;12.10;;;;;;;1.80;91.21;100660.48;214697;1265;74155;-75
2023/01/08 03:40:23;;;;;;;18.90;11.10;;;;;;;1.84;91.58;100655.07;214661;1263;60195;-75
2023/01/08 03:45:17;;;;;;;16.50;11.40;;;;;;;1.91;91.44;100651.98;214645;1263;67901;-75
2023/01/08 03:50:16;;;;;;;18.10;12.10;;;;;;;1.98;91.11;100646.35;214713;1262;59665;-75
2023/01/08 03:55:09;;;;;;;18.40;10.10;;;;;;;2.06;91.39;100641.92;214807;1263;72905;-77
2023/01/08 04:00:03;;;;;;;15.00;10.40;;;;;;;2.12;90.98;100637.45;214754;1263;72422;-75
2023/01/08 04:04:56;;;;;;;14.10;9.80;;;;;;;2.16;90.69;100647.11;214787;1265;59653;-76
2023/01/08 04:09:49;;;;;;;15.10;10.20;;;;;;;2.20;91.20;100648.48;214751;1263;59755;-75
2023/01/08 04:14:42;;;;;;;17.60;10.40;;;;;;;2.25;91.18;100646.70;214788;1265;59795;-75
2023/01/08 04:19:35;;;;;;;15.30;9.80;;;;;;;2.31;90.94;100646.41;214679;1263;59745;-75
2023/01/08 04:24:28;;;;;;;12.80;8.80;;;;;;;2.34;90.59;100647.95;214689;1265;73441;-75
2023/01/08 04:29:21;;;;;;;13.80;10.00;;;;;;;2.36;90.49;100642.41;214669;1263;59654;-75
2023/01/08 04:34:14;;;;;;;14.70;9.70;;;;;;;2.38;90.56;100636.69;214648;1265;59725;-75
2023/01/08 04:39:08;;;;;;;15.70;10.50;;;;;;;2.39;90.27;100631.27;214732;1265;59755;-76
2023/01/08 04:44:00;;;;;;;14.10;9.50;;;;;;;2.40;90.02;100624.63;214674;1263;72763;-75
2023/01/08 04:48:53;;;;;;;11.70;9.00;;;;;;;2.42;90.35;100616.50;214821;1266;59689;-76
2023/01/08 04:53:46;;;;;;;14.70;10.00;;;;;;;2.44;90.47;100613.52;214740;1264;59756;-76
2023/01/08 04:58:40;;;;;;;13.70;9.90;;;;;;;2.46;90.32;100613.48;214820;1263;59665;-75
2023/01/08 05:03:33;;;;;;;19.60;10.50;;;;;;;2.49;90.16;100615.80;214740;1265;60020;-75
2023/01/08 05:08:26;;;;;;;14.00;9.60;;;;;;;2.50;90.37;100625.80;214665;1265;71755;-76
2023/01/08 05:13:19;;;;;;;12.20;7.60;;;;;;;2.52;90.32;100625.56;214618;1265;59640;-75
2023/01/08 05:18:12;;;;;;;13.70;9.80;;;;;;;2.53;89.78;100629.88;214653;1264;59774;-75
2023/01/08 05:23:05;;;;;;;16.70;10.10;;;;;;;2.53;89.92;100623.05;214631;1261;59634;-75
2023/01/08 05:27:57;;;;;;;14.60;9.10;;;;;;;2.53;89.86;100622.02;214645;1266;59682;-76
2023/01/08 05:32:50;;;;;;;12.30;8.90;;;;;;;2.54;89.76;100621.02;214585;1266;59699;-75
2023/01/08 05:37:43;;;;;;;13.70;9.60;;;;;;;2.54;89.92;100619.66;214561;1263;60139;-76
2023/01/08 05:42:36;;;;;;;19.70;10.40;;;;;;;2.54;89.89;100607.69;214642;1263;59801;-76
2023/01/08 05:47:31;;;;;;;16.50;9.80;;;;;;;2.53;89.99;100608.83;214612;1266;59734;-75
2023/01/08 05:52:23;;;;;;;14.10;8.80;;;;;;;2.53;89.58;100607.09;214587;1266;59676;-75
2023/01/08 05:57:16;;;;;;;18.50;10.30;;;;;;;2.52;89.84;100612.38;214594;1264;59760;-76
2023/01/08 06:02:09;;;;;;;14.70;10.30;;;;;;;2.52;89.92;100607.59;214585;1266;59743;-75
2023/01/08 06:07:02;;;;;;;13.70;10.10;;;;;;;2.53;89.55;100610.55;214714;1264;59686;-75
2023/01/08 06:11:56;;;;;;;12.90;9.10;;;;;;;2.53;89.62;100603.73;215242;1257;59702;-75
2023/01/08 06:16:49;;;;;;;12.50;9.40;;;;;;;2.55;89.45;100597.79;215397;1258;59736;-75
2023/01/08 06:21:42;;;;;;;13.70;8.80;;;;;;;2.54;89.36;100602.89;215243;1257;71830;-76
2023/01/08 06:26:35;;;;;;;13.30;9.40;;;;;;;2.52;89.12;100597.67;215236;1261;59707;-75
2023/01/08 06:31:28;;;;;;;14.90;9.30;;;;;;;2.50;88.84;100594.84;215279;1258;59755;-76
2023/01/08 06:36:21;;;;;;;15.90;10.70;;;;;;;2.47;88.71;100598.48;215079;1257;66330;-76
2023/01/08 06:41:14;;;;;;;14.20;10.20;;;;;;;2.48;88.97;100602.95;215184;1258;59742;-75
2023/01/08 06:46:08;;;;;;;14.00;9.90;;;;;;;2.46;88.59;100601.32;215217;1257;59807;-75
2023/01/08 06:51:02;;;;;;;14.00;10.80;;;;;;;2.41;88.36;100595.44;215189;1261;71529;-76
2023/01/08 06:55:57;;;;;;;14.90;11.30;;;;;;;2.38;88.59;100592.38;215234;1257;60396;-75
2023/01/08 07:00:50;;;;;;;20.30;12.20;;;;;;;2.37;88.14;100579.16;215361;1257;67484;-75
2023/01/08 07:05:43;;;;;;;18.80;11.60;;;;;;;2.38;88.54;100577.13;215257;1257;59666;-76
2023/01/08 07:10:36;;;;;;;20.20;12.50;;;;;;;2.39;88.23;100575.52;215290;1257;72237;-75
2023/01/08 07:15:29;;;;;;;20.80;11.90;;;;;;;2.43;88.37;100570.86;215233;1257;60441;-75
2023/01/08 07:20:22;;;;;;;15.10;9.20;;;;;;;2.44;88.17;100560.84;215129;1257;60809;-75
2023/01/08 07:25:15;;;;;;;17.70;11.50;;;;;;;2.45;88.05;100552.34;215346;1260;60444;-75
2023/01/08 07:30:09;;;;;;;17.20;11.10;;;;;;;2.51;88.14;100573.14;215290;1260;62731;-76
2023/01/08 07:35:20;;;;;;;18.10;11.00;;;;;;;2.54;88.05;100565.95;215198;1258;73783;-75
2023/01/08 07:40:13;;;;;;;17.60;12.20;;;;;;;2.57;87.58;100547.06;215369;1257;60595;-76
2023/01/08 07:45:07;;;;;;;21.80;11.20;;;;;;;2.59;87.80;100547.19;215314;1260;60578;-75
2023/01/08 07:50:00;;;;;;;16.30;10.20;;;;;;;2.64;87.72;100551.69;215279;1257;66943;-76
2023/01/08 07:54:53;;;;;;;17.80;12.30;;;;;;;2.65;87.37;100545.08;215199;1259;60467;-75
2023/01/08 07:59:46;;;;;;;18.60;11.70;;;;;;;2.69;87.33;100538.89;215139;1262;60456;-75
2023/01/08 08:04:39;;;;;;;20.00;12.90;;;;;;;2.73;87.50;100529.45;215165;1258;60457;-75
2023/01/08 08:09:32;;;;;;;18.30;11.70;;;;;;;2.78;87.52;100520.13;215197;1257;60549;-75
2023/01/08 08:14:25;;;;;;;18.40;12.30;;;;;;;2.83;87.75;100511.46;215151;1258;65931;-76
2023/01/08 08:19:18;;;;;;;20.20;13.30;;;;;;;2.87;87.43;100511.98;215311;1258;60533;-76
2023/01/08 08:24:11;;;;;;;17.80;11.10;;;;;;;2.92;87.28;100508.09;215203;1260;60681;-75
2023/01/08 08:29:05;;;;;;;18.20;12.10;;;;;;;2.96;86.97;100504.86;215172;1257;73427;-75
2023/01/08 08:33:57;;;;;;;16.30;10.50;;;;;;;2.98;87.02;100510.59;215308;1260;60625;-76
2023/01/08 08:38:50;;;;;;;17.40;12.50;;;;;;;2.99;86.62;100513.36;215349;1257;60842;-76
2023/01/08 08:43:43;;;;;;;16.10;11.10;;;;;;;3.02;86.88;100510.74;215170;1257;60460;-76
2023/01/08 08:48:36;;;;;;;16.90;11.00;;;;;;;3.03;86.37;100506.00;215086;1257;60485;-76
2023/01/08 08:53:29;;;;;;;21.40;13.70;;;;;;;3.06;86.49;100496.04;215100;1257;60421;-76
2023/01/08 08:58:22;;;;;;;20.40;14.20;;;;;;;3.07;85.83;100497.60;215171;1257;60979;-76
2023/01/08 09:03:16;;;;;;;17.40;11.60;;;;;;;3.09;86.01;100484.50;215173;1257;60443;-76
2023/01/08 09:08:10;;;;;;;16.80;11.00;;;;;;;3.14;86.06;100473.10;215187;1257;60544;-76
2023/01/08 09:13:03;;;;;;;15.70;11.40;;;;;;;3.21;85.83;100469.44;215197;1261;73754;-77
2023/01/08 09:17:57;;;;;;;15.30;11.30;;;;;;;3.28;85.91;100466.14;215106;1260;72888;-76
2023/01/08 09:22:50;;;;;;;19.90;14.00;;;;;;;3.34;85.60;100459.40;215195;1257;60480;-76
2023/01/08 09:27:43;;;;;;;16.10;12.60;;;;;;;3.37;85.64;100459.16;215024;1257;60457;-76
2023/01/08 09:32:37;;;;;;;17.00;12.50;;;;;;;3.43;85.05;100463.67;215155;1257;60536;-76
2023/01/08 09:37:29;;;;;;;18.30;13.20;;;;;;;3.55;85.27;100458.16;214929;1257;73605;-76
2023/01/08 09:42:25;;;;;;;18.40;14.30;;;;;;;3.69;85.34;100451.70;214992;1257;60552;-76
2023/01/08 09:47:29;;;;;;;19.10;12.70;;;;;;;3.84;85.15;100448.39;215226;1257;60460;-76
2023/01/08 09:52:22;;;;;;;19.80;13.20;;;;;;;3.95;84.99;100443.67;215190;1259;65811;-76
2023/01/08 09:57:21;;;;;;;19.90;12.50;;;;;;;4.00;84.64;100442.48;215156;1258;60485;-76
2023/01/08 10:02:25;;;;;;;17.60;13.60;;;;;;;4.08;84.79;100442.62;215728;1254;73549;-76
2023/01/08 10:07:21;;;;;;;19.40;13.20;;;;;;;4.11;84.01;100437.61;215333;1253;72993;-76
2023/01/08 10:12:16;;;;;;;18.20;12.70;;;;;;;4.06;83.89;100435.84;215475;1254;61219;-75
2023/01/08 10:17:48;;;;;;;21.00;12.80;;;;;;;4.01;83.94;100433.25;215510;1254;66373;-76
2023/01/08 10:22:42;;;;;;;18.90;13.40;;;;;;;4.00;83.78;100429.30;215516;1254;60537;-76
2023/01/08 10:27:46;;;;;;;18.40;11.60;;;;;;;3.99;83.70;100421.89;215610;1254;72817;-76
2023/01/08 10:32:39;;;;;;;20.00;13.50;;;;;;;3.99;82.98;100414.33;215465;1253;73472;-76
2023/01/08 10:37:42;;;;;;;16.70;12.10;;;;;;;4.00;83.09;100407.33;215739;1254;60559;-76
2023/01/08 10:42:36;;;;;;;18.40;13.70;;;;;;;4.04;83.16;100401.63;215705;1254;67820;-76
2023/01/08 10:47:35;;;;;;;16.80;12.20;;;;;;;4.05;82.72;100401.01;215518;1254;61605;-75
2023/01/08 10:52:35;;;;;;;18.60;12.20;;;;;;;4.05;82.25;100392.61;215745;1253;71617;-76
2023/01/08 10:57:31;;;;;;;18.30;12.50;;;;;;;4.08;82.57;100383.10;215709;1254;73064;-75
2023/01/08 11:02:37;;;;;;;17.50;13.00;;;;;;;4.10;82.82;100377.18;215837;1254;61083;-76
2023/01/08 11:07:34;;;;;;;15.70;11.30;;;;;;;4.06;82.77;100363.48;215780;1254;65540;-76
2023/01/08 11:12:35;;;;;;;17.60;12.70;;;;;;;4.00;82.12;100356.04;215669;1254;234419;-76
2023/01/08 11:17:28;;;;;;;14.70;10.90;;;;;;;3.95;82.14;100352.27;215782;1254;72591;-75
2023/01/08 11:22:23;;;;;;;17.00;11.50;;;;;;;3.90;81.66;100348.46;215831;1253;72749;-76
2023/01/08 11:27:40;;;;;;;13.70;10.30;;;;;;;3.91;81.94;100346.27;215648;1255;60454;-76
2023/01/08 11:33:06;;;;;;;13.00;10.10;;;;;;;3.93;81.90;100345.16;215875;1254;66932;-75
2023/01/08 11:38:01;;;;;;;18.00;11.30;;;;;;;3.97;81.87;100333.81;215796;1254;60454;-75
2023/01/08 11:43:25;;;;;;;17.00;13.20;;;;;;;3.99;81.61;100336.45;215685;1254;73916;-76
2023/01/08 11:48:50;;;;;;;17.20;11.70;;;;;;;3.94;81.44;100322.02;215696;1256;70834;-76
2023/01/08 11:54:18;;;;;;;15.50;10.90;;;;;;;3.92;81.75;100316.13;215829;1254;60418;-75
2023/01/08 11:59:17;;;;;;;18.90;12.70;;;;;;;3.98;81.63;100310.17;215744;1254;66422;-76
2023/01/08 12:04:32;;;;;;;16.90;11.60;;;;;;;3.96;81.85;100314.41;215793;1253;60505;-76
2023/01/08 12:09:40;;;;;;;15.80;11.90;;;;;;;3.95;81.60;100321.23;215836;1254;73676;-76
2023/01/08 12:14:48;;;;;;;21.20;13.80;;;;;;;3.85;81.53;100318.09;215806;1254;72343;-75
2023/01/08 12:20:12;;;;;;;20.70;13.90;;;;;;;3.71;80.95;100308.00;215874;1254;60446;-75
2023/01/08 12:25:31;;;;;;;18.70;12.90;;;;;;;3.60;81.16;100301.89;215859;1254;67115;-76
2023/01/08 12:30:43;;;;;;;19.30;14.60;;;;;;;3.59;81.68;100307.17;215863;1254;60489;-75
2023/01/08 12:35:45;;;;;;;24.40;13.80;;;;;;;3.62;81.84;100302.33;215915;1254;73860;-76
2023/01/08 12:41:09;;;;;;;22.20;15.10;;;;;;;3.65;82.04;100295.73;215886;1254;71157;-75
2023/01/08 12:46:05;;;;;;;22.10;14.70;;;;;;;3.63;81.65;100294.16;215882;1256;61202;-76
2023/01/08 12:51:17;;;;;;;19.90;14.00;;;;;;;3.61;81.76;100299.02;215843;1254;68416;-76
2023/01/08 12:56:36;;;;;;;22.80;14.80;;;;;;;3.56;81.64;100297.45;215812;1254;60435;-76
2023/01/08 13:01:55;;;;;;;22.90;15.50;;;;;;;3.52;82.06;100287.05;215824;1254;73566;-76
2023/01/08 13:07:03;;;;;;;22.70;15.10;;;;;;;3.50;81.95;100294.66;215825;1253;73704;-75
2023/01/08 13:11:58;;;;;;;23.40;16.00;;;;;;;3.39;81.64;100297.67;215767;1256;60572;-75
2023/01/08 13:17:08;;;;;;;21.50;14.40;;;;;;;3.34;81.70;100295.42;215791;1254;68188;-75
2023/01/08 13:22:01;;;;;;;19.90;14.70;;;;;;;3.30;82.13;100290.82;215781;1254;60470;-75
2023/01/08 13:26:55;;;;;;;23.70;15.70;;;;;;;3.27;81.99;100299.58;215843;1254;73850;-75
2023/01/08 13:31:47;;;;;;;21.90;15.10;;;;;;;3.21;82.07;100303.81;216526;1254;72624;-75
2023/01/08 13:36:40;;;;;;;21.20;14.70;;;;;;;3.20;82.54;100298.48;215736;1254;60440;-74
2023/01/08 13:41:38;;;;;;;24.50;14.40;;;;;;;3.19;82.48;100288.48;215711;1254;61756;-75
2023/01/08 13:46:39;;;;;;;21.60;15.10;;;;;;;3.20;82.37;100280.64;215835;1253;60441;-75
2023/01/08 13:51:38;;;;;;;24.80;16.20;;;;;;;3.17;82.33;100274.52;215622;1254;72941;-76
2023/01/08 13:56:32;;;;;;;23.50;14.40;;;;;;;3.13;82.54;100268.05;215626;1254;71048;-76
2023/01/08 14:01:25;;;;;;;23.40;15.20;;;;;;;3.09;82.66;100260.85;215842;1254;60508;-76
2023/01/08 14:06:19;;;;;;;28.60;17.80;;;;;;;3.03;82.47;100254.82;215749;1254;65847;-76
2023/01/08 14:11:12;;;;;;;27.20;17.00;;;;;;;3.01;82.92;100256.28;215825;1254;60549;-76
2023/01/08 14:16:06;;;;;;;25.00;17.10;;;;;;;2.97;83.01;100253.91;215887;1253;60397;-76
2023/01/08 14:20:59;;;;;;;23.20;14.70;;;;;;;2.93;82.92;100252.66;215868;1254;71864;-76
2023/01/08 14:25:53;;;;;;;27.30;18.60;;;;;;;2.88;82.94;100258.98;215719;1256;61400;-76
2023/01/08 14:30:54;;;;;;;25.20;16.70;;;;;;;2.85;83.03;100252.53;215812;1254;68000;-76
2023/01/08 14:35:50;;;;;;;25.80;15.70;;;;;;;2.83;83.24;100260.50;215875;1254;60558;-76
2023/01/08 14:40:49;;;;;;;25.20;16.20;;;;;;;2.80;83.17;100250.13;215811;1253;74688;-76
2023/01/08 14:45:52;;;;;;;23.20;15.60;;;;;;;2.79;83.32;100241.35;215696;1254;72269;-76
2023/01/08 14:50:59;;;;;;;22.70;15.50;;;;;;;2.76;83.22;100235.89;215782;1254;60944;-75
2023/01/08 14:55:55;;;;;;;25.80;16.60;;;;;;;2.68;83.20;100241.79;215490;1254;67133;-76
2023/01/08 15:00:54;;;;;;;24.00;15.30;;;;;;;2.66;83.19;100243.40;215640;1255;60575;-75
2023/01/08 15:05:53;;;;;;;24.60;16.30;;;;;;;2.65;83.33;100248.30;215464;1257;73125;-77
2023/01/08 15:10:46;;;;;;;23.30;16.60;;;;;;;2.63;83.35;100236.95;215722;1254;71988;-76
2023/01/08 15:15:58;;;;;;;24.00;15.90;;;;;;;2.63;83.36;100226.85;215706;1254;60482;-76
2023/01/08 15:20:52;;;;;;;24.00;16.50;;;;;;;2.62;83.24;100213.80;215810;1254;66935;-76
2023/01/08 15:25:45;;;;;;;22.00;15.30;;;;;;;2.61;83.57;100205.70;215847;1254;61381;-77
2023/01/08 15:30:44;;;;;;;22.40;15.40;;;;;;;2.60;83.47;100197.95;215696;1254;74848;-76
2023/01/08 15:35:36;;;;;;;24.10;16.60;;;;;;;2.58;83.12;100192.76;215880;1254;72684;-76
2023/01/08 15:40:29;;;;;;;23.20;16.60;;;;;;;2.58;83.38;100191.55;215628;1254;61181;-76
2023/01/08 15:45:30;;;;;;;25.40;15.50;;;;;;;2.58;83.57;100188.84;215756;1254;60456;-75
2023/01/08 15:50:25;;;;;;;23.90;16.70;;;;;;;2.58;83.40;100188.83;215702;1253;60486;-75
2023/01/08 15:55:21;;;;;;;27.00;17.00;;;;;;;2.57;83.22;100190.34;215708;1254;73694;-75
2023/01/08 16:00:16;;;;;;;20.70;14.30;;;;;;;2.57;83.16;100197.69;215741;1254;71646;-75
2023/01/08 16:05:10;;;;;;;22.90;16.20;;;;;;;2.56;83.34;100193.17;215776;1254;60478;-76
2023/01/08 16:10:03;;;;;;;24.00;16.30;;;;;;;2.56;83.48;100188.05;215907;1254;67602;-75
2023/01/08 16:14:56;;;;;;;22.70;15.60;;;;;;;2.56;83.36;100184.43;215766;1256;60486;-75
2023/01/08 16:19:49;;;;;;;24.10;16.20;;;;;;;2.55;83.42;100175.14;215698;1254;73768;-75
2023/01/08 16:24:42;;;;;;;22.30;17.00;;;;;;;2.55;83.30;100164.08;215702;1254;60544;-76
2023/01/08 16:29:35;;;;;;;25.70;16.70;;;;;;;2.55;83.43;100157.56;215834;1254;61098;-75
2023/01/08 16:34:28;;;;;;;24.70;16.40;;;;;;;2.55;83.33;100149.00;215800;1254;60467;-75
2023/01/08 16:39:22;;;;;;;24.60;16.70;;;;;;;2.56;83.49;100146.83;215814;1254;60518;-75
2023/01/08 16:44:20;;;;;;;25.20;16.10;;;;;;;2.56;83.59;100137.95;215637;1254;73856;-75
2023/01/08 16:49:14;;;;;;;23.10;15.30;;;;;;;2.56;83.55;100146.84;215763;1254;71767;-75
2023/01/08 16:54:08;;;;;;;27.40;17.70;;;;;;;2.57;83.79;100140.69;215879;1259;60550;-74
2023/01/08 16:59:01;;;;;;;25.70;16.60;;;;;;;2.57;83.70;100131.45;215823;1254;65948;-75
2023/01/08 17:04:01;;;;;;;27.30;16.70;;;;;;;2.56;83.52;100122.37;215742;1255;61149;-75
2023/01/08 17:08:54;;;;;;;24.30;16.30;;;;;;;2.56;83.72;100145.27;215739;1254;74364;-75
2023/01/08 17:13:49;;;;;;;29.10;18.70;;;;;;;2.55;83.67;100145.23;215715;1254;72598;-75
2023/01/08 17:18:42;;;;;;;28.20;18.40;;;;;;;2.55;83.89;100137.87;215420;1254;61040;-75
2023/01/08 17:23:36;;;;;;;25.00;18.00;;;;;;;2.55;83.88;100142.48;215755;1256;65544;-75
2023/01/08 17:28:29;;;;;;;23.70;17.10;;;;;;;2.55;83.87;100132.40;215581;1254;60551;-75
2023/01/08 17:33:22;;;;;;;26.60;17.80;;;;;;;2.56;83.96;100119.29;215889;1254;74573;-75
2023/01/08 17:38:15;;;;;;;23.70;16.50;;;;;;;2.56;84.07;100107.13;215771;1255;60474;-74
2023/01/08 17:43:08;;;;;;;28.50;18.40;;;;;;;2.55;84.16;100101.78;215546;1254;60556;-75
2023/01/08 17:48:02;;;;;;;26.10;17.60;;;;;;;2.55;84.04;100095.25;215744;1255;68119;-75
2023/01/08 17:52:57;;;;;;;27.90;18.70;;;;;;;2.54;84.04;100081.05;215774;1254;60463;-75
2023/01/08 17:57:50;;;;;;;25.70;17.20;;;;;;;2.55;84.17;100091.52;215791;1258;73494;-75
2023/01/08 18:02:43;;;;;;;33.30;18.00;;;;;;;2.57;84.18;100104.24;215792;1256;60467;-75
2023/01/08 18:07:36;;;;;;;29.60;19.30;;;;;;;2.59;84.27;100095.94;215839;1254;60457;-74
2023/01/08 18:12:31;;;;;;;32.70;20.20;;;;;;;2.59;84.46;100099.39;215785;1254;66291;-75
2023/01/08 18:17:24;;;;;;;30.20;17.70;;;;;;;2.60;84.35;100097.53;215827;1258;60570;-75
2023/01/08 18:22:17;;;;;;;31.40;19.70;;;;;;;2.59;84.37;100074.54;215713;1254;60534;-74
2023/01/08 18:27:10;;;;;;;31.50;20.70;;;;;;;2.58;84.45;100067.17;215645;1255;72423;-75
2023/01/08 18:32:02;;;;;;;32.00;19.10;;;;;;;2.60;84.74;100055.75;215656;1254;60625;-74
2023/01/08 18:36:55;;;;;;;31.50;20.80;;;;;;;2.60;84.57;100054.25;215633;1254;60489;-74
2023/01/08 18:46:59;;;;;;;35.40;21.70;;;;;;;2.60;84.89;100055.77;215697;1256;74192;-75
2023/01/08 18:51:52;;;;;;;35.20;19.70;;;;;;;2.62;84.93;100050.20;215607;1255;60537;-75
2023/01/08 18:56:45;;;;;;;34.30;20.30;;;;;;;2.64;84.84;100063.96;215674;1256;60555;-74
2023/01/08 19:01:38;;;;;;;37.40;21.10;;;;;;;2.65;84.81;100068.27;215677;1255;66446;-75
2023/01/08 19:06:31;;;;;;;36.00;22.00;;;;;;;2.67;84.92;100075.04;215672;1254;60567;-75
2023/01/08 19:11:24;;;;;;;30.90;21.70;;;;;;;2.70;85.17;100070.02;215682;1255;73577;-76
2023/01/08 19:16:19;;;;;;;30.80;19.70;;;;;;;2.73;85.01;100059.34;215675;1254;73403;-75
2023/01/08 19:21:16;;;;;;;34.50;22.00;;;;;;;2.73;85.15;100054.57;215658;1254;60470;-75
2023/01/08 19:26:09;;;;;;;37.70;21.80;;;;;;;2.74;85.26;100053.56;216000;1254;66971;-75
2023/01/08 19:31:03;;;;;;;34.00;22.70;;;;;;;2.76;85.31;100053.80;215651;1256;60493;-75
2023/01/08 19:36:00;;;;;;;37.00;22.40;;;;;;;2.77;84.75;100050.60;215732;1254;73804;-76
2023/01/08 19:40:58;;;;;;;32.40;21.10;;;;;;;2.78;84.96;100053.73;215657;1254;72356;-75
2023/01/08 19:45:51;;;;;;;38.00;23.10;;;;;;;2.80;85.50;100047.10;215637;1256;60539;-75
2023/01/08 19:50:45;;;;;;;34.40;21.30;;;;;;;2.82;85.31;100052.14;215748;1255;60432;-75
2023/01/08 19:55:38;;;;;;;33.20;21.70;;;;;;;2.82;85.20;100061.04;215742;1254;60431;-75
2023/01/08 20:00:35;;;;;;;33.80;21.80;;;;;;;2.82;85.32;100060.70;215851;1253;61117;-75
2023/01/08 20:05:29;;;;;;;32.90;21.10;;;;;;;2.84;85.45;100064.73;215646;1256;73821;-75
2023/01/08 20:10:22;;;;;;;34.30;22.50;;;;;;;2.86;85.54;100066.66;215521;1258;61237;-75
2023/01/08 20:15:17;;;;;;;40.30;24.70;;;;;;;2.87;85.41;100069.45;215718;1255;65894;-75
2023/01/08 20:20:11;;;;;;;35.80;22.90;;;;;;;2.88;85.28;100062.48;215651;1256;65105;-75
2023/01/08 20:25:05;;;;;;;34.50;22.20;;;;;;;2.90;85.33;100061.52;215810;1254;73733;-75
2023/01/08 20:30:00;;;;;;;38.90;24.80;;;;;;;2.92;85.54;100061.10;215652;1256;71130;-75
2023/01/08 20:34:53;;;;;;;40.90;24.00;;;;;;;2.95;85.66;100062.55;215584;1256;60441;-75
2023/01/08 20:39:46;;;;;;;37.20;24.80;;;;;;;2.96;85.79;100062.11;215637;1256;60528;-75
2023/01/08 20:44:39;;;;;;;36.50;22.70;;;;;;;2.98;85.66;100051.91;215629;1258;60891;-75
2023/01/08 20:49:32;;;;;;;32.60;22.20;;;;;;;3.00;85.68;100032.27;215449;1256;60547;-75
2023/01/08 20:54:24;;;;;;;32.40;21.20;;;;;;;3.00;85.83;99999.06;215205;1256;60425;-76
2023/01/08 20:59:17;;;;;;;41.50;24.80;;;;;;;3.01;85.80;99988.48;215666;1254;60746;-75
2023/01/08 21:04:12;;;;;;;41.90;25.10;;;;;;;3.01;85.84;99966.74;215636;1256;60424;-75
2023/01/08 21:09:08;;;;;;;36.10;23.40;;;;;;;3.02;85.89;99952.40;215541;1254;60455;-74
2023/01/08 21:14:01;;;;;;;30.10;19.20;;;;;;;3.03;85.90;99945.23;215605;1254;74543;-75
2023/01/08 21:18:54;;;;;;;38.80;24.60;;;;;;;3.02;86.35;99933.91;215656;1255;74206;-75
2023/01/08 21:23:51;;;;;;;40.30;25.30;;;;;;;3.02;86.22;99934.95;215627;1255;61842;-75
2023/01/08 21:28:45;;;;;;;40.10;27.50;;;;;;;3.03;86.07;99914.58;215630;1256;65812;-75
2023/01/08 21:33:38;;;;;;;41.30;26.90;;;;;;;3.03;86.14;99906.38;215615;1256;60533;-76
2023/01/08 21:38:32;;;;;;;40.40;26.40;;;;;;;3.03;86.30;99905.87;215689;1254;72578;-75
2023/01/08 21:48:35;;;;;;;44.00;26.10;;;;;;;3.05;86.49;99898.56;215773;1259;60448;-75
2023/01/08 21:53:33;;;;;;;43.80;27.50;;;;;;;3.07;86.49;99895.02;215683;1254;66267;-75
2023/01/08 21:58:29;;;;;;;44.50;26.90;;;;;;;3.08;86.47;99881.17;215651;1258;60451;-75
2023/01/08 22:03:23;;;;;;;42.50;26.80;;;;;;;3.08;86.34;99880.34;215726;1258;72561;-77
2023/01/08 22:08:17;;;;;;;46.20;27.20;;;;;;;3.09;86.54;99874.89;215686;1256;72400;-75
2023/01/08 22:13:12;;;;;;;46.40;28.50;;;;;;;3.10;86.48;99869.59;215824;1256;60559;-75
2023/01/08 22:18:05;;;;;;;45.80;27.10;;;;;;;3.10;86.38;99863.79;215746;1254;65955;-75
2023/01/08 22:22:58;;;;;;;45.60;28.70;;;;;;;3.11;86.48;99865.53;215605;1254;60445;-74
2023/01/08 22:27:53;;;;;;;44.00;28.20;;;;;;;3.10;86.58;99858.65;215777;1254;60461;-75
2023/01/08 22:32:46;;;;;;;44.50;27.20;;;;;;;3.11;86.68;99856.95;215750;1254;74766;-75
2023/01/08 22:37:42;;;;;;;44.10;27.10;;;;;;;3.11;86.82;99857.31;215684;1254;60558;-75